Clarks, Louisiana
Current Conditions -  °F | °C
As of 7:53 PM on Friday 24 Oct 2014 (Local Time) from KMLU Reporting Station
Clear Clear  
Wind Chill: 58°   Ceiling: Unl
Heat Index: 58°   Visibility: 10mi
Dew Point: 53°   Wind: 0mph
Humidity: 84%   Direction: NA
Pressure: 30.13"   Gusts: NA
Location:  32.03°N, 92.14°W
Report Text: KMLU 250053Z 00000KT 10SM CLR 14/12 A3013 RMK AO2 SLP201 T01440117
Loading
Personal Weather Stations






























Interactive Weather Map
Tropical Storm Tracking
New forecast layout! Learn more

10-Day Weather Forecast

Advertisements
Track Severe Weather on mobile